Aviation Digital Data Service (ADDS)

Output produced by METARs form (0651 UTC 24 July 2016)
found at http://aviationweather.gov/adds/metars/
 
KAGC 240520Z 2406/2506 00000KT P6SM SCT250 
     FM241000 00000KT 3SM BR SCT250 
     FM241300 19004KT P6SM SCT250 
     FM241500 20004KT P6SM SCT040